Time;durP1;ratioP1;P1;durP2;ratioP2;P2;SDS_P1;SDS_P2;PMS_P1;PMS_P2;Temp;Humidity;BMP_temperature;BMP_pressure;BME280_temperature;BME280_humidity;BME280_pressure;Samples;Min_cycle;Max_cycle;Signal;HPM_P1;HPM_P2
2022/05/19 00:02:26;;;;;;;1.67;1.00;;;;;;;12.05;45.65;101002.84;4364644;32;34201;-68
2022/05/19 00:04:54;;;;;;;1.35;1.05;;;;;;;11.85;46.81;101007.63;4374692;32;33250;-67
2022/05/19 00:07:22;;;;;;;1.10;0.90;;;;;;;11.92;45.31;100993.97;4363218;32;34200;-68
2022/05/19 00:09:51;;;;;;;1.55;0.90;;;;;;;11.90;45.40;100999.66;4365918;32;33726;-67
2022/05/19 00:12:22;;;;;;;1.62;1.00;;;;;;;11.84;46.49;101000.53;4378444;32;33928;-68
2022/05/19 00:14:49;;;;;;;1.45;1.00;;;;;;;11.56;47.39;100995.63;4378353;32;33475;-67
2022/05/19 00:17:17;;;;;;;1.15;0.85;;;;;;;11.84;47.42;101005.97;4377254;32;34504;-67
2022/05/19 00:19:45;;;;;;;1.27;1.05;;;;;;;11.62;47.63;101000.97;4378158;32;34172;-67
2022/05/19 00:22:12;;;;;;;1.27;1.00;;;;;;;11.64;47.38;101004.31;4378237;32;33714;-68
2022/05/19 00:24:40;;;;;;;0.90;0.90;;;;;;;11.46;47.68;101007.81;4376545;32;32509;-68
2022/05/19 00:27:14;;;;;;;2.03;1.45;;;;;;;11.72;47.71;101007.78;4378223;32;34692;-68
2022/05/19 00:29:41;;;;;;;1.30;1.02;;;;;;;11.76;46.67;101009.00;4364375;32;34311;-67
2022/05/19 00:32:11;;;;;;;1.02;0.88;;;;;;;11.58;46.79;101007.09;4378112;32;33897;-67
2022/05/19 00:34:39;;;;;;;0.98;0.88;;;;;;;11.59;47.07;101009.56;4378235;32;33461;-68
2022/05/19 00:37:06;;;;;;;2.08;1.00;;;;;;;11.39;48.31;101006.22;4377814;32;33764;-68
2022/05/19 00:39:35;;;;;;;1.90;1.00;;;;;;;11.08;49.01;101005.25;4377626;32;34976;-67
2022/05/19 00:44:49;;;;;;;1.20;1.10;;;;;;;11.14;48.82;101006.22;4378195;32;33457;-68
2022/05/19 00:47:21;;;;;;;1.23;1.00;;;;;;;11.06;48.58;100999.19;4378042;32;33968;-68
2022/05/19 00:49:49;;;;;;;1.73;1.02;;;;;;;11.29;47.33;101002.13;4377547;32;34205;-67
2022/05/19 00:52:25;;;;;;;1.20;1.10;;;;;;;10.79;50.04;101003.97;4355573;32;34051;-68
2022/05/19 00:55:07;;;;;;;1.20;1.00;;;;;;;11.04;49.51;101002.13;4349591;32;33396;-68
2022/05/19 00:57:38;;;;;;;0.80;0.80;;;;;;;11.05;49.03;100992.91;4349691;32;33940;-68
2022/05/19 01:00:12;;;;;;;1.40;1.05;;;;;;;10.98;49.49;101005.72;4349625;32;35101;-73
2022/05/19 01:02:43;;;;;;;1.45;1.00;;;;;;;10.62;50.78;100998.25;4377896;32;33792;-68
2022/05/19 01:05:14;;;;;;;2.12;1.10;;;;;;;10.95;49.57;100999.87;4364511;32;33213;-68
2022/05/19 01:08:12;;;;;;;1.33;0.80;;;;;;;10.81;51.63;101002.69;4377731;32;34076;-68
2022/05/19 01:10:40;;;;;;;0.80;0.80;;;;;;;11.01;50.86;100997.13;4377555;32;33884;-67
2022/05/19 01:13:10;;;;;;;1.10;1.00;;;;;;;11.24;49.59;100995.69;4377819;32;34718;-67
2022/05/19 01:15:40;;;;;;;1.42;1.00;;;;;;;11.17;50.14;101001.19;4371670;32;33246;-67
2022/05/19 01:18:09;;;;;;;1.33;1.10;;;;;;;11.12;49.87;101001.00;4359731;32;33962;-67
2022/05/19 01:20:38;;;;;;;1.27;1.17;;;;;;;10.68;51.33;100991.94;4377743;32;34961;-67
2022/05/19 01:23:14;;;;;;;1.52;0.93;;;;;;;10.79;51.11;100991.22;4378068;32;33896;-67
2022/05/19 01:25:49;;;;;;;1.55;1.10;;;;;;;11.14;50.02;100995.34;4377452;32;34415;-66
2022/05/19 01:28:17;;;;;;;1.33;0.98;;;;;;;11.13;50.17;100999.13;4376423;32;33876;-67
2022/05/19 01:30:45;;;;;;;1.10;0.90;;;;;;;10.80;51.82;100997.50;4364004;32;33956;-70
2022/05/19 01:33:12;;;;;;;1.10;0.93;;;;;;;10.65;51.77;100995.94;4363290;32;33650;-68
2022/05/19 01:35:40;;;;;;;1.45;1.00;;;;;;;10.80;51.14;101000.22;4362710;32;34346;-68
2022/05/19 01:38:16;;;;;;;2.12;0.85;;;;;;;10.49;51.93;100990.19;4362419;32;33963;-67
2022/05/19 01:41:26;;;;;;;2.78;1.00;;;;;;;10.52;52.10;100987.88;4374999;32;34237;-67
2022/05/19 01:44:25;;;;;;;0.90;0.80;;;;;;;10.41;52.74;100994.81;4340388;32;33936;-68
2022/05/19 01:47:03;;;;;;;2.25;1.10;;;;;;;10.30;52.55;100983.81;4376117;32;33218;-67
2022/05/19 01:50:17;;;;;;;1.52;0.90;;;;;;;10.30;52.84;100986.53;4348927;32;34139;-70
2022/05/19 01:52:53;;;;;;;1.20;1.10;;;;;;;10.55;53.00;100992.03;4359811;32;34997;-69
2022/05/19 01:55:29;;;;;;;1.55;1.00;;;;;;;10.54;51.88;100987.62;4362331;32;33911;-67
2022/05/19 01:58:20;;;;;;;1.35;0.90;;;;;;;10.83;50.90;100995.16;4349132;32;33261;-67
2022/05/19 02:00:50;;;;;;;0.80;0.80;;;;;;;10.67;51.62;101001.16;4349116;32;33730;-68
2022/05/19 02:03:54;;;;;;;1.73;1.10;;;;;;;9.98;53.59;101002.72;4372967;32;34999;-68
2022/05/19 02:06:29;;;;;;;1.17;1.00;;;;;;;10.21;53.37;101007.59;4354246;32;34394;-68
2022/05/19 02:09:01;;;;;;;2.15;1.20;;;;;;;9.91;54.24;101002.72;4363689;32;33639;-68
2022/05/19 02:11:41;;;;;;;2.35;1.17;;;;;;;9.95;53.87;101013.97;4377174;32;33850;-68
2022/05/19 02:14:12;;;;;;;0.90;0.80;;;;;;;10.51;52.83;101012.50;4377008;32;34086;-67
2022/05/19 02:16:42;;;;;;;1.42;1.15;;;;;;;10.48;51.84;101005.63;4360185;32;33623;-68
2022/05/19 02:19:12;;;;;;;0.98;0.88;;;;;;;10.39;51.39;101001.53;4348491;32;34257;-68
2022/05/19 02:21:40;;;;;;;1.17;1.00;;;;;;;10.42;51.59;101004.62;4348701;32;33979;-67
2022/05/19 02:24:09;;;;;;;1.37;1.10;;;;;;;9.93;52.92;101000.63;4355465;32;34185;-67
2022/05/19 02:26:38;;;;;;;1.48;1.15;;;;;;;10.05;52.65;101008.94;4363018;32;33805;-67
2022/05/19 02:29:17;;;;;;;1.52;1.10;;;;;;;9.68;53.69;100999.69;4363130;32;32757;-68
2022/05/19 02:31:44;;;;;;;1.25;1.00;;;;;;;10.31;51.99;101008.00;4363419;32;33904;-67
2022/05/19 02:34:12;;;;;;;1.35;1.00;;;;;;;10.18;52.09;101006.16;4376660;32;34193;-68
2022/05/19 02:36:40;;;;;;;1.65;1.10;;;;;;;10.27;51.42;101015.72;4376785;32;33828;-67
2022/05/19 02:39:09;;;;;;;1.65;1.20;;;;;;;10.44;52.14;101012.53;4363279;32;33577;-67
2022/05/19 02:41:36;;;;;;;1.35;1.20;;;;;;;9.88;53.86;101016.69;4365506;32;34251;-68
2022/05/19 02:44:04;;;;;;;1.60;1.15;;;;;;;9.67;55.00;101025.09;4378847;32;35085;-67
2022/05/19 02:46:31;;;;;;;1.50;1.10;;;;;;;9.93;53.95;101021.47;4378653;32;33713;-67
2022/05/19 02:49:00;;;;;;;1.70;1.20;;;;;;;9.54;55.64;101021.34;4378860;32;32553;-68
2022/05/19 02:51:28;;;;;;;2.12;1.30;;;;;;;9.82;54.96;101026.50;4368648;32;34042;-67
2022/05/19 02:53:56;;;;;;;2.33;1.08;;;;;;;9.83;55.23;101022.75;4363573;32;33837;-68
2022/05/19 02:56:23;;;;;;;2.42;1.20;;;;;;;9.88;55.78;101030.25;4364149;32;33817;-67
2022/05/19 02:58:50;;;;;;;2.08;1.20;;;;;;;9.94;54.70;101026.69;4363868;32;33450;-68
2022/05/19 03:01:19;;;;;;;1.33;1.10;;;;;;;9.89;54.95;101029.19;4363441;32;33998;-67
2022/05/19 03:03:48;;;;;;;1.50;1.20;;;;;;;9.92;54.63;101028.78;4363854;32;34100;-67
2022/05/19 03:06:15;;;;;;;1.65;1.23;;;;;;;10.00;54.27;101023.13;4373347;32;33863;-67
2022/05/19 03:08:43;;;;;;;1.45;1.08;;;;;;;9.50;55.80;101030.94;4378553;32;34230;-67
2022/05/19 03:11:11;;;;;;;1.70;1.20;;;;;;;9.34;56.03;101029.50;4378701;32;34004;-67
2022/05/19 03:13:38;;;;;;;2.15;0.95;;;;;;;9.90;54.74;101038.19;4378827;32;34203;-68
2022/05/19 03:16:07;;;;;;;1.77;1.08;;;;;;;10.03;53.74;101038.13;4378551;32;33202;-67
2022/05/19 03:18:35;;;;;;;1.20;1.05;;;;;;;10.00;53.15;101031.28;4365224;32;34169;-68
2022/05/19 03:21:02;;;;;;;1.70;1.30;;;;;;;10.06;53.34;101035.00;4354274;32;34649;-67
2022/05/19 03:23:30;;;;;;;1.95;1.45;;;;;;;9.74;54.94;101034.03;4363440;32;34323;-68
2022/05/19 03:25:58;;;;;;;1.75;1.20;;;;;;;9.52;56.30;101034.28;4372273;32;34744;-67
2022/05/19 03:28:25;;;;;;;4.00;1.40;;;;;;;9.79;55.41;101034.25;4378674;32;33431;-67
2022/05/19 03:30:53;;;;;;;2.58;1.30;;;;;;;10.39;54.16;101040.31;4378174;32;34019;-73
2022/05/19 03:33:20;;;;;;;2.03;1.17;;;;;;;10.93;53.33;101045.44;4378509;32;34082;-67
2022/05/19 03:35:58;;;;;;;2.75;1.23;;;;;;;11.16;52.01;101048.41;4378350;32;34039;-67
2022/05/19 03:38:26;;;;;;;2.95;1.40;;;;;;;11.87;49.61;101051.75;4357767;32;33536;-67
2022/05/19 03:40:54;;;;;;;1.60;1.12;;;;;;;12.32;47.86;101052.28;4364030;32;34081;-65
2022/05/19 03:43:21;;;;;;;2.53;1.15;;;;;;;12.15;48.63;101055.88;4352941;32;34076;-65
2022/05/19 03:45:50;;;;;;;2.05;1.40;;;;;;;12.58;48.72;101060.34;4369062;32;34235;-65
2022/05/19 03:48:18;;;;;;;1.23;1.00;;;;;;;13.07;47.80;101058.41;4369172;32;33354;-67
2022/05/19 03:50:46;;;;;;;1.55;1.10;;;;;;;13.50;45.60;101054.59;4368036;32;33927;-68
2022/05/19 03:53:14;;;;;;;1.58;1.25;;;;;;;13.98;44.94;101056.22;4366325;32;34237;-67
2022/05/19 03:55:42;;;;;;;3.17;1.20;;;;;;;13.77;45.42;101063.13;4368836;32;33869;-66
2022/05/19 03:58:09;;;;;;;1.92;1.20;;;;;;;14.24;44.46;101054.03;4354523;32;33421;-70
2022/05/19 04:00:37;;;;;;;2.72;1.08;;;;;;;14.76;43.71;101060.28;4369323;32;34754;-68
2022/05/19 04:03:05;;;;;;;1.30;1.08;;;;;;;15.33;42.04;101058.53;4369233;32;34999;-67
2022/05/19 04:05:33;;;;;;;1.60;1.10;;;;;;;16.21;39.41;101064.25;4366256;32;32785;-66
2022/05/19 04:08:00;;;;;;;1.42;1.33;;;;;;;16.60;37.71;101065.00;4375498;32;33696;-66
2022/05/19 04:10:29;;;;;;;2.28;1.30;;;;;;;16.93;36.61;101071.44;4377916;32;34079;-67
2022/05/19 04:12:56;;;;;;;2.10;1.27;;;;;;;17.16;37.40;101070.25;4375933;32;34035;-66
2022/05/19 04:15:24;;;;;;;2.15;1.30;;;;;;;17.53;35.54;101074.13;4375632;32;34717;-66
2022/05/19 04:17:52;;;;;;;1.40;1.25;;;;;;;17.85;35.23;101082.34;4363100;32;33460;-67
2022/05/19 04:20:20;;;;;;;1.42;1.08;;;;;;;17.79;36.26;101083.38;4363568;32;34095;-68
2022/05/19 04:22:47;;;;;;;3.12;1.65;;;;;;;18.25;36.25;101078.19;4362976;32;34070;-72
2022/05/19 04:25:15;;;;;;;1.98;1.27;;;;;;;18.61;35.79;101079.12;4362758;32;33718;-68
2022/05/19 04:27:43;;;;;;;2.00;1.20;;;;;;;19.37;33.76;101085.06;4362857;32;33691;-69
2022/05/19 04:30:10;;;;;;;1.73;1.20;;;;;;;19.88;31.28;101085.88;4362810;32;33953;-68
2022/05/19 04:32:42;;;;;;;1.30;1.10;;;;;;;20.07;31.34;101088.88;4354741;32;33626;-70
2022/05/19 04:35:11;;;;;;;1.80;1.20;;;;;;;20.54;30.95;101091.44;4357737;32;33655;-68
2022/05/19 04:37:38;;;;;;;1.87;1.10;;;;;;;21.15;30.37;101090.31;4362773;32;33796;-68
2022/05/19 04:40:07;;;;;;;1.52;1.10;;;;;;;21.49;28.35;101088.41;4370681;32;34658;-67
2022/05/19 04:42:35;;;;;;;1.40;1.10;;;;;;;21.95;27.92;101087.13;4361740;32;34330;-68
2022/05/19 04:45:03;;;;;;;1.67;1.17;;;;;;;22.34;27.68;101094.47;4361633;32;33995;-68
2022/05/19 04:47:32;;;;;;;3.75;1.30;;;;;;;22.35;27.22;101087.81;4353743;32;33605;-69
2022/05/19 04:50:00;;;;;;;2.60;1.23;;;;;;;21.35;29.12;101084.63;4375976;32;34035;-67
2022/05/19 04:52:27;;;;;;;1.87;1.23;;;;;;;22.10;28.16;101091.69;4375122;32;34184;-69
2022/05/19 04:54:55;;;;;;;2.03;1.37;;;;;;;22.19;28.46;101080.78;4376661;32;33862;-68
2022/05/19 04:57:22;;;;;;;2.87;1.40;;;;;;;22.09;29.15;101082.56;4372573;32;33893;-69
2022/05/19 04:59:50;;;;;;;2.08;1.40;;;;;;;21.74;30.66;101088.47;4361775;32;33984;-69
2022/05/19 05:02:18;;;;;;;2.17;1.27;;;;;;;20.74;31.35;101085.88;4361087;32;35118;-69
2022/05/19 05:04:45;;;;;;;2.92;1.45;;;;;;;19.91;32.76;101080.91;4361147;32;34710;-68
2022/05/19 05:07:13;;;;;;;2.37;1.20;;;;;;;19.18;34.83;101082.03;4361453;32;33282;-68
2022/05/19 05:09:41;;;;;;;2.70;1.37;;;;;;;19.40;35.19;101079.03;4361067;32;33593;-68
2022/05/19 05:12:09;;;;;;;2.62;1.37;;;;;;;19.38;35.07;101083.97;4361494;32;34336;-70
2022/05/19 05:14:37;;;;;;;2.15;1.50;;;;;;;19.25;36.33;101085.34;4361489;32;33888;-69
2022/05/19 05:17:04;;;;;;;2.45;1.40;;;;;;;19.30;35.84;101087.28;4360801;32;33477;-70
2022/05/19 05:19:32;;;;;;;3.28;1.40;;;;;;;19.39;34.69;101080.94;4360092;32;34690;-66
2022/05/19 05:22:00;;;;;;;2.45;1.50;;;;;;;19.35;35.09;101092.75;4347210;32;33859;-68
2022/05/19 05:24:30;;;;;;;4.55;1.60;;;;;;;19.55;34.57;101084.53;4361077;32;34045;-69
2022/05/19 05:26:57;;;;;;;1.83;1.30;;;;;;;19.63;34.00;101089.47;4361415;32;33403;-70
2022/05/19 05:29:25;;;;;;;1.73;1.30;;;;;;;19.63;35.60;101097.75;4361161;32;34120;-70
2022/05/19 05:31:52;;;;;;;3.05;1.40;;;;;;;19.34;36.68;101102.94;4361305;32;34211;-70
2022/05/19 05:34:20;;;;;;;2.42;1.70;;;;;;;19.32;37.13;101098.84;4360880;32;34698;-72
2022/05/19 05:36:47;;;;;;;3.72;1.67;;;;;;;19.18;37.23;101093.88;4348045;32;32829;-70
2022/05/19 05:39:15;;;;;;;4.70;1.80;;;;;;;19.75;36.59;101099.41;4361149;32;33430;-70
2022/05/19 05:41:43;;;;;;;5.10;1.90;;;;;;;19.16;36.47;101103.50;4361388;32;34098;-71
2022/05/19 05:44:10;;;;;;;2.65;1.52;;;;;;;19.54;35.67;101104.87;4361296;32;34716;-71
2022/05/19 05:46:41;;;;;;;4.45;2.00;;;;;;;19.88;36.20;101109.84;4361281;32;34213;-70
2022/05/19 05:49:11;;;;;;;3.50;2.22;;;;;;;20.18;33.88;101108.94;4360763;32;34522;-71
2022/05/19 05:51:39;;;;;;;4.03;2.35;;;;;;;20.41;32.75;101112.16;4367226;32;33964;-71
2022/05/19 05:54:07;;;;;;;3.67;2.40;;;;;;;20.80;33.22;101108.72;4376094;32;35258;-71
2022/05/19 05:56:34;;;;;;;4.80;2.50;;;;;;;21.57;31.75;101109.03;4375749;32;33467;-69
2022/05/19 05:59:02;;;;;;;4.47;2.40;;;;;;;21.55;31.92;101114.03;4375397;32;34032;-70
2022/05/19 06:01:29;;;;;;;4.80;2.70;;;;;;;21.43;32.15;101111.66;4374708;32;34133;-71
2022/05/19 06:03:57;;;;;;;3.65;2.45;;;;;;;21.24;32.49;101108.72;4369147;32;34414;-70
2022/05/19 06:06:25;;;;;;;4.35;2.80;;;;;;;20.84;31.76;101113.41;4375787;32;34200;-70
2022/05/19 06:08:52;;;;;;;4.55;2.67;;;;;;;21.61;30.40;101109.28;4376098;32;34085;-72
2022/05/19 06:11:20;;;;;;;5.12;2.87;;;;;;;21.47;30.90;101109.16;4375767;32;34035;-71
2022/05/19 06:13:50;;;;;;;5.60;2.45;;;;;;;22.27;30.22;101105.88;4366095;32;34732;-72
2022/05/19 06:16:18;;;;;;;4.07;2.50;;;;;;;22.37;30.30;101106.88;4361654;32;33586;-73
2022/05/19 06:18:46;;;;;;;3.47;2.30;;;;;;;23.22;29.33;101102.41;4363523;32;34617;-71
2022/05/19 06:21:14;;;;;;;4.20;2.45;;;;;;;23.65;27.30;101111.41;4363704;32;34185;-72
2022/05/19 06:23:41;;;;;;;4.07;2.72;;;;;;;22.47;28.34;101112.28;4363892;32;33967;-72
2022/05/19 06:26:09;;;;;;;3.47;2.15;;;;;;;23.19;29.82;101111.31;4364010;32;33580;-71
2022/05/19 06:28:37;;;;;;;5.07;2.60;;;;;;;23.30;29.44;101110.03;4363501;32;34880;-71
2022/05/19 06:31:05;;;;;;;4.10;2.30;;;;;;;23.22;28.38;101113.47;4363890;32;34962;-70
2022/05/19 06:33:35;;;;;;;3.62;2.28;;;;;;;23.80;27.31;101107.56;4363598;32;33945;-70
2022/05/19 06:36:04;;;;;;;3.42;2.28;;;;;;;23.38;26.46;101108.53;4363715;32;34284;-71
2022/05/19 06:38:32;;;;;;;3.40;2.20;;;;;;;24.32;25.70;101102.69;4350539;32;33880;-72
2022/05/19 07:15:53;;;;;;;5.07;1.20;;;;;;;29.84;14.93;101115.50;5130809;27;20047;-73
2022/05/19 07:18:22;;;;;;;1.67;1.20;;;;;;;29.95;14.53;101111.06;4352935;32;32632;-72
2022/05/19 07:20:50;;;;;;;2.45;1.10;;;;;;;29.57;14.30;101117.72;4350726;32;34052;-72
2022/05/19 07:23:24;;;;;;;1.70;1.10;;;;;;;28.54;17.12;101104.22;4363433;32;34324;-73
2022/05/19 07:25:53;;;;;;;3.28;1.95;;;;;;;29.00;16.20;101116.38;4363538;32;34771;-73
2022/05/19 07:28:22;;;;;;;1.92;1.20;;;;;;;28.10;16.75;101103.62;4363314;32;34877;-73
2022/05/19 07:30:49;;;;;;;1.50;1.10;;;;;;;27.00;17.67;101115.06;4363094;32;33984;-75
2022/05/19 07:33:19;;;;;;;2.95;1.20;;;;;;;25.74;18.63;101112.78;4359260;32;34050;-74
2022/05/19 07:35:49;;;;;;;2.72;1.00;;;;;;;25.29;19.79;101107.25;4362361;32;33796;-74
2022/05/19 07:38:17;;;;;;;2.22;0.90;;;;;;;24.57;18.55;101114.41;4336751;32;34385;-71
2022/05/19 07:40:45;;;;;;;2.95;1.05;;;;;;;24.87;18.19;101101.81;4362138;32;33760;-73
2022/05/19 07:45:59;;;;;;;3.20;1.30;;;;;;;24.76;19.99;101105.94;4351062;32;34032;-74
2022/05/19 07:48:26;;;;;;;2.08;1.33;;;;;;;24.72;17.75;101105.75;4361974;32;34282;-73
2022/05/19 07:50:54;;;;;;;1.58;1.30;;;;;;;24.40;18.58;101097.53;4348829;32;33146;-74
2022/05/19 07:53:22;;;;;;;2.37;1.40;;;;;;;24.09;20.02;101101.75;4349669;32;34255;-72
2022/05/19 07:55:49;;;;;;;1.65;1.30;;;;;;;23.94;20.54;101090.94;4348273;32;34063;-70
2022/05/19 07:58:17;;;;;;;2.12;1.30;;;;;;;24.44;18.98;101088.28;4347801;32;34318;-72
2022/05/19 08:00:46;;;;;;;3.22;1.40;;;;;;;24.07;21.21;101100.41;4363474;32;34765;-76
2022/05/19 08:03:14;;;;;;;2.80;1.23;;;;;;;24.22;20.78;101102.88;4363082;32;33524;-70
2022/05/19 08:05:42;;;;;;;1.58;1.10;;;;;;;23.80;21.89;101101.19;4363521;32;34650;-70
2022/05/19 08:08:09;;;;;;;3.15;1.37;;;;;;;23.88;21.55;101101.31;4363259;32;35007;-70
2022/05/19 08:10:37;;;;;;;2.70;1.10;;;;;;;23.82;21.99;101104.47;4363434;32;33961;-68
2022/05/19 08:15:54;;;;;;;1.25;0.90;;;;;;;23.75;19.38;101104.84;4365822;32;33567;-68
2022/05/19 08:18:23;;;;;;;2.08;0.90;;;;;;;23.26;20.52;101095.97;4378047;32;34328;-67
2022/05/19 08:20:55;;;;;;;1.40;0.90;;;;;;;23.76;18.19;101098.22;4364888;32;33690;-69
2022/05/19 08:23:28;;;;;;;1.25;1.00;;;;;;;23.73;19.17;101102.38;4378116;32;33289;-68
2022/05/19 08:25:56;;;;;;;2.12;1.27;;;;;;;23.49;21.61;101094.19;4377869;32;33858;-69
2022/05/19 08:28:31;;;;;;;3.35;1.27;;;;;;;23.44;20.46;101102.59;4377885;32;34865;-68
2022/05/19 08:31:04;;;;;;;1.50;1.25;;;;;;;23.93;20.41;101098.44;4378285;32;33918;-69
2022/05/19 08:33:32;;;;;;;0.90;0.90;;;;;;;23.67;20.80;101092.53;4378070;32;33582;-70
2022/05/19 08:35:59;;;;;;;1.70;1.10;;;;;;;23.94;19.56;101086.22;4364428;32;33768;-68
2022/05/19 08:38:27;;;;;;;1.73;1.08;;;;;;;24.06;19.76;101094.06;4377440;32;34197;-70
2022/05/19 08:41:03;;;;;;;1.00;0.90;;;;;;;24.02;20.21;101093.03;4364612;32;33896;-72
2022/05/19 08:43:44;;;;;;;1.55;1.10;;;;;;;23.81;22.35;101092.56;4364531;32;33523;-70
2022/05/19 08:46:32;;;;;;;2.33;1.40;;;;;;;23.98;21.71;101091.16;4353525;32;34813;-72
2022/05/19 08:49:05;;;;;;;1.17;1.00;;;;;;;23.76;22.57;101101.00;4334793;33;35025;-72
2022/05/19 08:51:40;;;;;;;1.83;0.80;;;;;;;24.14;22.03;101096.09;4334675;33;33621;-71
2022/05/19 08:54:21;;;;;;;1.75;1.00;;;;;;;24.39;21.91;101091.16;4334918;33;34170;-73
2022/05/19 08:56:58;;;;;;;1.55;1.00;;;;;;;24.20;21.09;101087.69;4334566;33;34775;-72
2022/05/19 08:59:55;;;;;;;1.30;0.82;;;;;;;24.42;21.90;101084.19;4334404;33;35069;-72
2022/05/19 09:02:30;;;;;;;1.15;0.95;;;;;;;24.82;22.27;101090.81;4334280;33;34482;-75
2022/05/19 09:05:07;;;;;;;;;;;;;;;24.85;19.31;101092.16;4335321;33;33482;-74
2022/05/19 09:07:59;;;;;;;1.50;0.93;;;;;;;24.75;20.00;101090.41;4348323;33;35160;-75
2022/05/19 09:10:39;;;;;;;1.17;0.93;;;;;;;24.28;20.05;101082.25;4335469;33;33958;-73
2022/05/19 09:13:28;;;;;;;1.15;0.93;;;;;;;24.08;21.34;101079.88;4348174;33;33942;-74
2022/05/19 09:16:12;;;;;;;1.23;1.00;;;;;;;23.93;21.32;101078.22;4347832;33;33478;-75
2022/05/19 09:18:44;;;;;;;1.85;1.00;;;;;;;24.32;20.27;101068.59;4334956;33;34918;-75
2022/05/19 09:21:11;;;;;;;1.12;0.80;;;;;;;24.43;20.41;101074.72;4334502;33;34982;-75
2022/05/19 09:23:40;;;;;;;1.37;1.00;;;;;;;24.47;20.72;101070.19;4347938;33;33938;-75
2022/05/19 09:26:35;;;;;;;2.50;0.90;;;;;;;24.56;21.70;101071.16;4348019;33;33458;-75
2022/05/19 09:29:09;;;;;;;1.05;0.90;;;;;;;24.83;21.42;101072.22;4334715;33;33881;-75
2022/05/19 09:31:38;;;;;;;;;;;;;;;25.06;19.77;101064.75;4334788;33;33976;-73
2022/05/19 09:34:08;;;;;;;1.12;0.98;;;;;;;25.01;21.18;101079.56;4348068;33;35067;-75
2022/05/19 09:36:41;;;;;;;1.05;0.90;;;;;;;24.92;18.97;101065.62;4335030;33;34152;-74
2022/05/19 09:39:16;;;;;;;1.37;0.80;;;;;;;25.01;17.82;101062.06;4347825;33;33802;-74
2022/05/19 09:41:54;;;;;;;1.37;1.00;;;;;;;25.03;18.92;101068.13;4334733;33;34273;-73
2022/05/19 09:44:28;;;;;;;0.80;0.80;;;;;;;25.11;20.46;101065.41;4334386;33;34081;-73
2022/05/19 09:46:55;;;;;;;1.08;0.90;;;;;;;24.93;20.48;101067.25;4347784;33;34193;-75
2022/05/19 09:49:27;;;;;;;3.42;1.10;;;;;;;24.98;18.99;101064.34;4348351;33;34195;-73
2022/05/19 09:52:04;;;;;;;0.80;0.80;;;;;;;24.67;18.53;101055.09;4349480;33;35220;-74
2022/05/19 09:54:33;;;;;;;0.77;0.70;;;;;;;24.84;19.50;101051.63;4336344;33;33922;-74
2022/05/19 09:57:09;;;;;;;1.10;0.80;;;;;;;24.81;19.98;101061.41;4349399;33;34204;-74
2022/05/19 09:59:45;;;;;;;0.80;0.80;;;;;;;25.07;19.27;101056.06;4336669;33;33695;-73
2022/05/19 10:02:28;;;;;;;0.90;0.90;;;;;;;24.82;18.61;101043.63;4349201;33;34058;-75
2022/05/19 10:05:47;;;;;;;1.70;0.95;;;;;;;24.85;18.63;101048.56;4349322;33;34108;-74
2022/05/19 10:08:25;;;;;;;0.80;0.70;;;;;;;24.70;20.14;101038.62;4349263;33;33701;-74
2022/05/19 10:10:55;;;;;;;1.33;0.68;;;;;;;25.42;18.26;101044.41;4349455;33;33963;-75
2022/05/19 10:13:28;;;;;;;0.93;0.80;;;;;;;25.38;19.33;101038.69;4349258;33;34157;-75
2022/05/19 10:16:00;;;;;;;1.90;1.00;;;;;;;25.50;19.17;101041.69;4349081;33;34826;-75
2022/05/19 10:18:31;;;;;;;0.88;0.73;;;;;;;25.40;19.03;101036.41;4332511;32;33614;-68
2022/05/19 10:21:08;;;;;;;1.30;0.80;;;;;;;25.51;17.84;101032.22;4349111;33;34911;-73
2022/05/19 10:24:05;;;;;;;0.73;0.73;;;;;;;25.32;18.64;101031.62;4335844;33;35036;-75
2022/05/19 10:33:12;;;;;;;2.25;0.82;;;;;;;25.95;17.74;101026.91;4357907;32;33656;-71
2022/05/19 10:36:04;;;;;;;0.95;0.80;;;;;;;25.85;17.90;101014.06;4363821;32;34178;-67
2022/05/19 10:38:44;;;;;;;0.75;0.70;;;;;;;26.01;16.86;101014.50;4364013;32;33973;-67
2022/05/19 10:41:43;;;;;;;1.20;0.80;;;;;;;25.67;19.38;101004.84;4350321;32;33298;-70
2022/05/19 10:44:44;;;;;;;1.10;0.80;;;;;;;26.03;16.70;101001.09;4350200;32;33870;-69
2022/05/19 10:47:44;;;;;;;1.83;0.80;;;;;;;26.00;18.16;101010.06;4363445;32;33735;-72
2022/05/19 10:50:21;;;;;;;0.95;0.90;;;;;;;25.58;18.30;100996.47;4363919;32;34022;-73
2022/05/19 10:53:11;;;;;;;2.20;1.10;;;;;;;25.79;17.03;101004.25;4363182;32;33302;-69
2022/05/19 10:56:04;;;;;;;0.70;0.70;;;;;;;25.77;17.45;100999.00;4360551;32;33979;-73
2022/05/19 10:59:03;;;;;;;0.70;0.70;;;;;;;25.87;17.19;100994.28;4365187;32;34368;-74
2022/05/19 11:01:39;;;;;;;2.10;0.73;;;;;;;25.93;18.97;100981.91;4364800;32;34081;-73
2022/05/19 11:04:24;;;;;;;1.25;0.93;;;;;;;25.79;18.45;100982.81;4365006;32;34284;-72
2022/05/19 11:06:55;;;;;;;3.42;0.80;;;;;;;25.86;18.37;100971.22;4378693;32;34029;-73
2022/05/19 11:10:02;;;;;;;1.12;0.73;;;;;;;25.85;18.06;100975.13;4378339;32;35181;-73
2022/05/19 11:12:49;;;;;;;3.22;1.00;;;;;;;26.33;17.74;100962.37;4365214;32;34677;-74
2022/05/19 11:15:22;;;;;;;1.02;0.90;;;;;;;26.41;18.42;100964.31;4378390;32;33329;-73
2022/05/19 11:18:02;;;;;;;1.52;1.10;;;;;;;26.33;17.71;100965.16;4371967;32;34410;-72
2022/05/19 11:20:41;;;;;;;0.85;0.80;;;;;;;26.50;17.49;100958.75;4378528;32;33859;-74
2022/05/19 11:23:18;;;;;;;1.20;1.00;;;;;;;26.87;16.25;100959.25;4378013;32;33983;-72
2022/05/19 11:29:00;;;;;;;0.88;0.70;;;;;;;25.94;17.96;100945.44;4378786;32;34768;-74
2022/05/19 11:31:43;;;;;;;1.05;0.70;;;;;;;25.96;17.84;100943.16;4365027;32;34175;-74
2022/05/19 11:34:21;;;;;;;0.60;0.60;;;;;;;26.54;17.53;100934.69;4378671;32;34763;-75
2022/05/19 11:37:26;;;;;;;0.73;0.70;;;;;;;26.66;17.72;100932.09;4364862;32;33442;-75
2022/05/19 11:40:13;;;;;;;0.73;0.73;;;;;;;26.76;16.38;100930.94;4378359;32;34806;-74
2022/05/19 11:42:47;;;;;;;0.82;0.82;;;;;;;26.53;15.99;100931.09;4378507;32;35044;-75
2022/05/19 11:45:32;;;;;;;0.70;0.70;;;;;;;27.07;16.42;100924.34;4346023;32;34089;-72
2022/05/19 11:55:20;;;;;;;1.37;0.75;;;;;;;26.90;15.86;100916.84;4336082;33;34222;-70
2022/05/19 11:58:09;;;;;;;1.35;0.82;;;;;;;27.09;16.69;100913.69;4306825;33;33618;-71
2022/05/19 12:00:55;;;;;;;1.33;0.80;;;;;;;27.18;17.48;100920.03;4334169;33;34373;-70
2022/05/19 12:03:43;;;;;;;0.80;0.65;;;;;;;27.23;17.25;100905.13;4334535;33;33834;-71
2022/05/19 12:06:14;;;;;;;1.73;0.90;;;;;;;27.22;17.54;100901.53;4347184;33;34168;-70
2022/05/19 12:08:41;;;;;;;3.20;1.33;;;;;;;27.28;15.73;100897.44;4347413;33;34845;-69
2022/05/19 12:11:13;;;;;;;0.75;0.73;;;;;;;26.24;16.39;100900.31;4346705;33;33487;-69
2022/05/19 12:13:46;;;;;;;1.80;1.10;;;;;;;27.08;15.89;100890.56;4333677;33;33963;-70
2022/05/19 12:16:17;;;;;;;1.02;0.77;;;;;;;26.82;16.60;100882.28;4333398;33;34466;-71
2022/05/19 12:19:07;;;;;;;0.77;0.62;;;;;;;27.19;16.07;100889.06;4333974;33;33796;-72
2022/05/19 12:21:35;;;;;;;1.55;0.85;;;;;;;26.99;17.14;100887.00;4334173;33;34436;-74
2022/05/19 12:24:08;;;;;;;0.90;0.80;;;;;;;26.92;15.90;100884.72;4347194;33;34702;-73
2022/05/19 12:26:58;;;;;;;1.10;0.90;;;;;;;26.88;14.26;100886.53;4347474;33;35225;-70
2022/05/19 12:29:29;;;;;;;1.58;1.05;;;;;;;26.71;16.45;100884.59;4345988;33;34177;-69
2022/05/19 12:32:07;;;;;;;1.52;0.95;;;;;;;26.67;16.51;100878.03;4346587;33;33519;-73
2022/05/19 12:34:45;;;;;;;1.00;0.80;;;;;;;27.01;16.30;100874.37;4334329;33;33848;-71
2022/05/19 12:37:13;;;;;;;0.70;0.70;;;;;;;27.39;15.99;100879.16;4333818;33;35177;-70
2022/05/19 12:39:43;;;;;;;2.97;1.75;;;;;;;27.14;16.50;100875.31;4347395;33;34750;-70
2022/05/19 12:42:40;;;;;;;1.45;0.98;;;;;;;26.75;18.30;100868.88;4335868;33;33478;-70
2022/05/19 12:45:20;;;;;;;1.20;0.77;;;;;;;26.79;16.35;100871.81;4333246;33;34581;-69
2022/05/19 12:48:21;;;;;;;1.08;0.98;;;;;;;26.88;16.54;100867.03;4347178;33;34781;-71
2022/05/19 12:50:51;;;;;;;0.80;0.77;;;;;;;27.29;16.89;100864.78;4347023;33;34776;-72
2022/05/19 12:53:23;;;;;;;0.90;0.90;;;;;;;27.52;16.02;100868.94;4342042;33;164911;-70
2022/05/19 12:55:53;;;;;;;2.97;1.00;;;;;;;27.54;17.12;100869.44;4346855;33;34056;-72